sensor_id;sensor_type;location;lat;lon;timestamp;temperature;humidity
19732;DHT22;10017;54.350;18.532;2023-03-20T00:02:17;8.30;99.90
19732;DHT22;10017;54.350;18.532;2023-03-20T00:04:52;8.40;99.90
19732;DHT22;10017;54.350;18.532;2023-03-20T00:07:24;8.40;99.90
19732;DHT22;10017;54.350;18.532;2023-03-20T00:09:56;8.40;99.90
19732;DHT22;10017;54.350;18.532;2023-03-20T00:12:28;8.40;99.90
19732;DHT22;10017;54.350;18.532;2023-03-20T00:15:06;8.40;99.90
19732;DHT22;10017;54.350;18.532;2023-03-20T00:17:38;8.40;99.90
19732;DHT22;10017;54.350;18.532;2023-03-20T00:20:14;8.50;99.90
19732;DHT22;10017;54.350;18.532;2023-03-20T00:22:48;8.50;99.90
19732;DHT22;10017;54.350;18.532;2023-03-20T00:25:21;8.50;99.90
19732;DHT22;10017;54.350;18.532;2023-03-20T00:27:54;8.50;99.90
19732;DHT22;10017;54.350;18.532;2023-03-20T00:30:27;8.50;99.90
19732;DHT22;10017;54.350;18.532;2023-03-20T00:32:59;8.50;99.90
19732;DHT22;10017;54.350;18.532;2023-03-20T00:35:31;8.50;99.90
19732;DHT22;10017;54.350;18.532;2023-03-20T00:38:04;8.50;99.90
19732;DHT22;10017;54.350;18.532;2023-03-20T00:40:35;8.50;99.90
19732;DHT22;10017;54.350;18.532;2023-03-20T00:43:12;8.50;99.90
19732;DHT22;10017;54.350;18.532;2023-03-20T00:45:46;8.50;99.90
19732;DHT22;10017;54.350;18.532;2023-03-20T00:48:20;8.50;99.90
19732;DHT22;10017;54.350;18.532;2023-03-20T00:50:52;8.50;99.90
19732;DHT22;10017;54.350;18.532;2023-03-20T00:53:25;8.50;99.90
19732;DHT22;10017;54.350;18.532;2023-03-20T00:55:57;8.50;99.90
19732;DHT22;10017;54.350;18.532;2023-03-20T00:58:29;8.50;99.90
19732;DHT22;10017;54.350;18.532;2023-03-20T01:01:03;8.50;99.90
19732;DHT22;10017;54.350;18.532;2023-03-20T01:03:35;8.50;99.90
19732;DHT22;10017;54.350;18.532;2023-03-20T01:06:11;8.50;99.90
19732;DHT22;10017;54.350;18.532;2023-03-20T01:08:43;8.50;99.90
19732;DHT22;10017;54.350;18.532;2023-03-20T01:11:20;8.50;99.90
19732;DHT22;10017;54.350;18.532;2023-03-20T01:13:52;8.50;99.90
19732;DHT22;10017;54.350;18.532;2023-03-20T01:16:24;8.40;99.90
19732;DHT22;10017;54.350;18.532;2023-03-20T01:18:57;8.40;99.90
19732;DHT22;10017;54.350;18.532;2023-03-20T01:21:29;8.40;99.90
19732;DHT22;10017;54.350;18.532;2023-03-20T01:24:03;8.40;99.90
19732;DHT22;10017;54.350;18.532;2023-03-20T01:26:37;8.40;99.90
19732;DHT22;10017;54.350;18.532;2023-03-20T01:29:24;8.40;99.90
19732;DHT22;10017;54.350;18.532;2023-03-20T01:31:58;8.40;99.90
19732;DHT22;10017;54.350;18.532;2023-03-20T01:34:31;8.40;99.90
19732;DHT22;10017;54.350;18.532;2023-03-20T01:37:02;8.40;99.90
19732;DHT22;10017;54.350;18.532;2023-03-20T01:39:35;8.40;99.90
19732;DHT22;10017;54.350;18.532;2023-03-20T01:42:07;8.40;99.90
19732;DHT22;10017;54.350;18.532;2023-03-20T01:44:39;8.40;99.90
19732;DHT22;10017;54.350;18.532;2023-03-20T01:47:17;8.50;99.90
19732;DHT22;10017;54.350;18.532;2023-03-20T01:52:40;8.50;99.90
19732;DHT22;10017;54.350;18.532;2023-03-20T01:55:11;8.50;99.90
19732;DHT22;10017;54.350;18.532;2023-03-20T01:57:43;8.50;99.90
19732;DHT22;10017;54.350;18.532;2023-03-20T02:00:15;8.50;99.90
19732;DHT22;10017;54.350;18.532;2023-03-20T02:02:48;8.50;99.90
19732;DHT22;10017;54.350;18.532;2023-03-20T02:05:20;8.60;99.90
19732;DHT22;10017;54.350;18.532;2023-03-20T02:07:55;8.60;99.90
19732;DHT22;10017;54.350;18.532;2023-03-20T02:10:31;8.70;99.90
19732;DHT22;10017;54.350;18.532;2023-03-20T02:13:03;8.70;99.90
19732;DHT22;10017;54.350;18.532;2023-03-20T02:15:35;8.70;99.90
19732;DHT22;10017;54.350;18.532;2023-03-20T02:18:07;8.70;99.90
19732;DHT22;10017;54.350;18.532;2023-03-20T02:42:00;8.70;99.90
19732;DHT22;10017;54.350;18.532;2023-03-20T02:44:43;8.60;99.90
19732;DHT22;10017;54.350;18.532;2023-03-20T02:47:20;8.60;99.90
19732;DHT22;10017;54.350;18.532;2023-03-20T02:53:15;8.50;99.90
19732;DHT22;10017;54.350;18.532;2023-03-20T02:55:53;8.60;99.90
19732;DHT22;10017;54.350;18.532;2023-03-20T02:58:27;8.60;99.90
19732;DHT22;10017;54.350;18.532;2023-03-20T03:01:02;8.60;99.90
19732;DHT22;10017;54.350;18.532;2023-03-20T03:03:43;8.60;99.90
19732;DHT22;10017;54.350;18.532;2023-03-20T03:06:17;8.50;99.90
19732;DHT22;10017;54.350;18.532;2023-03-20T03:08:59;8.50;99.90
19732;DHT22;10017;54.350;18.532;2023-03-20T03:11:33;8.50;99.90
19732;DHT22;10017;54.350;18.532;2023-03-20T03:14:06;8.40;99.90
19732;DHT22;10017;54.350;18.532;2023-03-20T03:16:40;8.40;99.90
19732;DHT22;10017;54.350;18.532;2023-03-20T03:19:14;8.40;99.90
19732;DHT22;10017;54.350;18.532;2023-03-20T03:21:49;8.40;99.90
19732;DHT22;10017;54.350;18.532;2023-03-20T03:24:28;8.40;99.90
19732;DHT22;10017;54.350;18.532;2023-03-20T03:27:14;8.40;99.90
19732;DHT22;10017;54.350;18.532;2023-03-20T03:29:52;8.50;99.90
19732;DHT22;10017;54.350;18.532;2023-03-20T03:32:31;8.50;99.90
19732;DHT22;10017;54.350;18.532;2023-03-20T03:35:03;8.60;99.90
19732;DHT22;10017;54.350;18.532;2023-03-20T03:45:35;8.70;99.90
19732;DHT22;10017;54.350;18.532;2023-03-20T03:48:10;8.70;99.90
19732;DHT22;10017;54.350;18.532;2023-03-20T03:50:47;8.80;99.90
19732;DHT22;10017;54.350;18.532;2023-03-20T03:53:24;8.80;99.90
19732;DHT22;10017;54.350;18.532;2023-03-20T03:55:59;8.80;99.90
19732;DHT22;10017;54.350;18.532;2023-03-20T03:58:34;8.80;99.90
19732;DHT22;10017;54.350;18.532;2023-03-20T04:01:08;8.80;99.90
19732;DHT22;10017;54.350;18.532;2023-03-20T04:03:52;8.90;99.90
19732;DHT22;10017;54.350;18.532;2023-03-20T04:06:25;8.90;99.90
19732;DHT22;10017;54.350;18.532;2023-03-20T04:09:00;8.90;99.90
19732;DHT22;10017;54.350;18.532;2023-03-20T04:11:32;8.90;99.90
19732;DHT22;10017;54.350;18.532;2023-03-20T04:14:06;8.90;99.90
19732;DHT22;10017;54.350;18.532;2023-03-20T04:16:40;8.90;99.90
19732;DHT22;10017;54.350;18.532;2023-03-20T04:19:12;8.90;99.90
19732;DHT22;10017;54.350;18.532;2023-03-20T04:21:44;8.90;99.90
19732;DHT22;10017;54.350;18.532;2023-03-20T04:24:16;8.90;99.90
19732;DHT22;10017;54.350;18.532;2023-03-20T04:26:48;8.80;99.90
19732;DHT22;10017;54.350;18.532;2023-03-20T04:29:23;8.90;99.90
19732;DHT22;10017;54.350;18.532;2023-03-20T04:31:57;8.90;99.90
19732;DHT22;10017;54.350;18.532;2023-03-20T04:34:32;8.80;99.90
19732;DHT22;10017;54.350;18.532;2023-03-20T04:37:04;8.80;99.90
19732;DHT22;10017;54.350;18.532;2023-03-20T04:39:38;8.80;99.90
19732;DHT22;10017;54.350;18.532;2023-03-20T04:42:12;8.80;99.90
19732;DHT22;10017;54.350;18.532;2023-03-20T04:44:44;8.80;99.90
19732;DHT22;10017;54.350;18.532;2023-03-20T04:47:16;8.80;99.90
19732;DHT22;10017;54.350;18.532;2023-03-20T04:49:50;8.90;99.90
19732;DHT22;10017;54.350;18.532;2023-03-20T04:52:22;8.90;99.90
19732;DHT22;10017;54.350;18.532;2023-03-20T04:54:57;8.90;99.90
19732;DHT22;10017;54.350;18.532;2023-03-20T04:57:31;8.90;99.90
19732;DHT22;10017;54.350;18.532;2023-03-20T05:00:03;9.00;99.90
19732;DHT22;10017;54.350;18.532;2023-03-20T05:02:35;9.00;99.90
19732;DHT22;10017;54.350;18.532;2023-03-20T05:05:07;9.00;99.90
19732;DHT22;10017;54.350;18.532;2023-03-20T05:07:42;9.00;99.90
19732;DHT22;10017;54.350;18.532;2023-03-20T05:10:13;9.00;99.90
19732;DHT22;10017;54.350;18.532;2023-03-20T05:12:46;9.00;99.90
19732;DHT22;10017;54.350;18.532;2023-03-20T05:15:20;9.00;99.90
19732;DHT22;10017;54.350;18.532;2023-03-20T05:17:52;9.00;99.90
19732;DHT22;10017;54.350;18.532;2023-03-20T05:20:25;9.00;99.90
19732;DHT22;10017;54.350;18.532;2023-03-20T05:23:00;9.10;99.90
19732;DHT22;10017;54.350;18.532;2023-03-20T05:25:32;9.10;99.90
19732;DHT22;10017;54.350;18.532;2023-03-20T05:28:04;9.10;99.90
19732;DHT22;10017;54.350;18.532;2023-03-20T05:30:36;9.20;99.90
19732;DHT22;10017;54.350;18.532;2023-03-20T05:33:10;9.20;99.90
19732;DHT22;10017;54.350;18.532;2023-03-20T05:35:43;9.20;99.90
19732;DHT22;10017;54.350;18.532;2023-03-20T05:38:14;9.30;99.90
19732;DHT22;10017;54.350;18.532;2023-03-20T05:40:47;9.30;99.90
19732;DHT22;10017;54.350;18.532;2023-03-20T05:43:19;9.30;99.90
19732;DHT22;10017;54.350;18.532;2023-03-20T05:45:51;9.30;99.90
19732;DHT22;10017;54.350;18.532;2023-03-20T05:48:23;9.30;99.90
19732;DHT22;10017;54.350;18.532;2023-03-20T05:50:57;9.30;99.90
19732;DHT22;10017;54.350;18.532;2023-03-20T05:53:29;9.40;99.90
19732;DHT22;10017;54.350;18.532;2023-03-20T05:56:01;9.40;99.90
19732;DHT22;10017;54.350;18.532;2023-03-20T05:58:33;9.40;99.90
19732;DHT22;10017;54.350;18.532;2023-03-20T06:01:07;9.40;99.90
19732;DHT22;10017;54.350;18.532;2023-03-20T06:03:38;9.50;99.90
19732;DHT22;10017;54.350;18.532;2023-03-20T06:06:11;9.60;99.90
19732;DHT22;10017;54.350;18.532;2023-03-20T06:08:43;9.60;99.90
19732;DHT22;10017;54.350;18.532;2023-03-20T06:11:15;9.60;99.90
19732;DHT22;10017;54.350;18.532;2023-03-20T06:13:46;9.70;99.90
19732;DHT22;10017;54.350;18.532;2023-03-20T06:16:22;9.70;99.90
19732;DHT22;10017;54.350;18.532;2023-03-20T06:18:54;9.80;99.90
19732;DHT22;10017;54.350;18.532;2023-03-20T06:21:26;9.80;99.90
19732;DHT22;10017;54.350;18.532;2023-03-20T06:23:58;9.80;99.90
19732;DHT22;10017;54.350;18.532;2023-03-20T06:26:30;9.90;99.90
19732;DHT22;10017;54.350;18.532;2023-03-20T06:29:02;9.90;99.90
19732;DHT22;10017;54.350;18.532;2023-03-20T06:31:34;9.90;99.90
19732;DHT22;10017;54.350;18.532;2023-03-20T06:34:06;10.00;99.90
19732;DHT22;10017;54.350;18.532;2023-03-20T06:36:38;10.10;99.90
19732;DHT22;10017;54.350;18.532;2023-03-20T06:39:10;10.10;99.90
19732;DHT22;10017;54.350;18.532;2023-03-20T06:41:44;10.20;99.90
19732;DHT22;10017;54.350;18.532;2023-03-20T06:44:18;10.30;99.90
19732;DHT22;10017;54.350;18.532;2023-03-20T06:46:50;10.30;99.90
19732;DHT22;10017;54.350;18.532;2023-03-20T06:49:23;10.40;99.90
19732;DHT22;10017;54.350;18.532;2023-03-20T06:51:54;10.50;99.90
19732;DHT22;10017;54.350;18.532;2023-03-20T06:54:29;10.60;99.90
19732;DHT22;10017;54.350;18.532;2023-03-20T06:57:01;10.70;99.90
19732;DHT22;10017;54.350;18.532;2023-03-20T06:59:32;10.70;99.90
19732;DHT22;10017;54.350;18.532;2023-03-20T07:02:08;10.80;99.90
19732;DHT22;10017;54.350;18.532;2023-03-20T07:04:40;10.90;99.90
19732;DHT22;10017;54.350;18.532;2023-03-20T07:07:14;11.00;99.90
19732;DHT22;10017;54.350;18.532;2023-03-20T07:09:50;11.00;99.90
19732;DHT22;10017;54.350;18.532;2023-03-20T07:12:29;11.10;99.90
19732;DHT22;10017;54.350;18.532;2023-03-20T07:15:00;11.10;99.90
19732;DHT22;10017;54.350;18.532;2023-03-20T07:17:32;11.20;99.90
19732;DHT22;10017;54.350;18.532;2023-03-20T07:20:04;11.20;99.90
19732;DHT22;10017;54.350;18.532;2023-03-20T07:22:36;11.20;99.90
19732;DHT22;10017;54.350;18.532;2023-03-20T07:25:08;11.10;99.90
19732;DHT22;10017;54.350;18.532;2023-03-20T07:27:40;11.10;99.90
19732;DHT22;10017;54.350;18.532;2023-03-20T07:30:13;11.00;99.90
19732;DHT22;10017;54.350;18.532;2023-03-20T07:32:45;11.00;99.90
19732;DHT22;10017;54.350;18.532;2023-03-20T07:35:17;11.00;99.90
19732;DHT22;10017;54.350;18.532;2023-03-20T07:37:49;11.10;99.90
19732;DHT22;10017;54.350;18.532;2023-03-20T07:40:21;11.10;99.90
19732;DHT22;10017;54.350;18.532;2023-03-20T07:42:52;11.10;99.90
19732;DHT22;10017;54.350;18.532;2023-03-20T07:45:24;11.10;99.90
19732;DHT22;10017;54.350;18.532;2023-03-20T07:47:58;11.10;99.90
19732;DHT22;10017;54.350;18.532;2023-03-20T07:50:31;11.20;99.90
19732;DHT22;10017;54.350;18.532;2023-03-20T07:53:05;11.20;99.90
19732;DHT22;10017;54.350;18.532;2023-03-20T07:55:38;11.20;99.90
19732;DHT22;10017;54.350;18.532;2023-03-20T07:58:10;11.30;99.90
19732;DHT22;10017;54.350;18.532;2023-03-20T08:00:42;11.30;99.90
19732;DHT22;10017;54.350;18.532;2023-03-20T08:03:14;11.30;99.90
19732;DHT22;10017;54.350;18.532;2023-03-20T08:05:46;11.30;99.90
19732;DHT22;10017;54.350;18.532;2023-03-20T08:08:18;11.30;99.90
19732;DHT22;10017;54.350;18.532;2023-03-20T08:10:50;11.30;99.90
19732;DHT22;10017;54.350;18.532;2023-03-20T08:13:22;11.30;99.90
19732;DHT22;10017;54.350;18.532;2023-03-20T08:15:54;11.30;99.90
19732;DHT22;10017;54.350;18.532;2023-03-20T08:18:26;11.30;99.90
19732;DHT22;10017;54.350;18.532;2023-03-20T08:20:58;11.30;99.90
19732;DHT22;10017;54.350;18.532;2023-03-20T08:23:29;11.30;99.90
19732;DHT22;10017;54.350;18.532;2023-03-20T08:26:01;11.40;99.90
19732;DHT22;10017;54.350;18.532;2023-03-20T08:28:33;11.50;99.90
19732;DHT22;10017;54.350;18.532;2023-03-20T08:31:22;11.60;99.90
19732;DHT22;10017;54.350;18.532;2023-03-20T08:33:54;11.60;99.90
19732;DHT22;10017;54.350;18.532;2023-03-20T08:36:28;11.60;99.90
19732;DHT22;10017;54.350;18.532;2023-03-20T08:39:02;11.70;99.90
19732;DHT22;10017;54.350;18.532;2023-03-20T08:41:40;11.80;99.90
19732;DHT22;10017;54.350;18.532;2023-03-20T08:44:14;11.90;99.90
19732;DHT22;10017;54.350;18.532;2023-03-20T08:46:48;12.20;99.90
19732;DHT22;10017;54.350;18.532;2023-03-20T08:49:20;12.30;99.90
19732;DHT22;10017;54.350;18.532;2023-03-20T08:51:52;12.40;99.90
19732;DHT22;10017;54.350;18.532;2023-03-20T08:54:24;12.40;99.90
19732;DHT22;10017;54.350;18.532;2023-03-20T08:56:56;12.40;99.90
19732;DHT22;10017;54.350;18.532;2023-03-20T08:59:30;12.50;99.90
19732;DHT22;10017;54.350;18.532;2023-03-20T09:02:02;12.80;99.90
19732;DHT22;10017;54.350;18.532;2023-03-20T09:04:34;13.00;99.90
19732;DHT22;10017;54.350;18.532;2023-03-20T09:07:06;13.20;99.90
19732;DHT22;10017;54.350;18.532;2023-03-20T09:09:42;13.50;99.90
19732;DHT22;10017;54.350;18.532;2023-03-20T09:12:14;13.60;99.90
19732;DHT22;10017;54.350;18.532;2023-03-20T09:14:46;13.80;99.90
19732;DHT22;10017;54.350;18.532;2023-03-20T09:17:18;13.90;99.90
19732;DHT22;10017;54.350;18.532;2023-03-20T09:19:50;14.10;99.90
19732;DHT22;10017;54.350;18.532;2023-03-20T09:22:21;14.30;99.90
19732;DHT22;10017;54.350;18.532;2023-03-20T09:24:53;14.40;99.90
19732;DHT22;10017;54.350;18.532;2023-03-20T09:27:28;14.50;99.90
19732;DHT22;10017;54.350;18.532;2023-03-20T09:29:59;14.40;99.90
19732;DHT22;10017;54.350;18.532;2023-03-20T09:32:34;14.20;99.90
19732;DHT22;10017;54.350;18.532;2023-03-20T09:35:06;14.10;99.90
19732;DHT22;10017;54.350;18.532;2023-03-20T09:37:38;14.00;99.90
19732;DHT22;10017;54.350;18.532;2023-03-20T09:40:48;13.90;99.90
19732;DHT22;10017;54.350;18.532;2023-03-20T09:48:49;14.30;99.90
19732;DHT22;10017;54.350;18.532;2023-03-20T09:51:35;14.10;99.90
19732;DHT22;10017;54.350;18.532;2023-03-20T09:54:10;13.90;99.90
19732;DHT22;10017;54.350;18.532;2023-03-20T09:56:44;13.50;99.90
19732;DHT22;10017;54.350;18.532;2023-03-20T09:59:15;13.10;99.90
19732;DHT22;10017;54.350;18.532;2023-03-20T10:01:53;12.90;99.90
19732;DHT22;10017;54.350;18.532;2023-03-20T10:04:27;12.80;99.90
19732;DHT22;10017;54.350;18.532;2023-03-20T10:07:01;12.70;99.90
19732;DHT22;10017;54.350;18.532;2023-03-20T10:09:34;12.80;99.90
19732;DHT22;10017;54.350;18.532;2023-03-20T10:15:02;13.00;99.90
19732;DHT22;10017;54.350;18.532;2023-03-20T10:17:59;13.00;99.90
19732;DHT22;10017;54.350;18.532;2023-03-20T10:20:41;12.90;99.90
19732;DHT22;10017;54.350;18.532;2023-03-20T10:23:29;13.20;99.90
19732;DHT22;10017;54.350;18.532;2023-03-20T10:26:11;13.50;99.90
19732;DHT22;10017;54.350;18.532;2023-03-20T10:28:59;13.80;99.90
19732;DHT22;10017;54.350;18.532;2023-03-20T10:31:33;13.90;99.90
19732;DHT22;10017;54.350;18.532;2023-03-20T10:37:07;13.80;99.90
19732;DHT22;10017;54.350;18.532;2023-03-20T10:42:39;13.50;99.90
19732;DHT22;10017;54.350;18.532;2023-03-20T10:45:28;13.20;99.90
19732;DHT22;10017;54.350;18.532;2023-03-20T10:48:03;12.70;99.90
19732;DHT22;10017;54.350;18.532;2023-03-20T10:50:42;12.30;99.90
19732;DHT22;10017;54.350;18.532;2023-03-20T10:53:34;12.20;99.90
19732;DHT22;10017;54.350;18.532;2023-03-20T10:56:09;12.20;99.90
19732;DHT22;10017;54.350;18.532;2023-03-20T10:58:56;12.20;99.90
19732;DHT22;10017;54.350;18.532;2023-03-20T11:01:28;12.20;99.90
19732;DHT22;10017;54.350;18.532;2023-03-20T11:04:00;12.30;99.90
19732;DHT22;10017;54.350;18.532;2023-03-20T11:06:33;12.30;99.90
19732;DHT22;10017;54.350;18.532;2023-03-20T11:09:17;12.30;99.90
19732;DHT22;10017;54.350;18.532;2023-03-20T11:11:50;12.20;99.90
19732;DHT22;10017;54.350;18.532;2023-03-20T11:14:26;12.20;99.90
19732;DHT22;10017;54.350;18.532;2023-03-20T11:17:03;12.20;99.90
19732;DHT22;10017;54.350;18.532;2023-03-20T11:19:36;12.30;99.90
19732;DHT22;10017;54.350;18.532;2023-03-20T11:22:20;12.30;99.90
19732;DHT22;10017;54.350;18.532;2023-03-20T11:24:54;12.20;99.90
19732;DHT22;10017;54.350;18.532;2023-03-20T11:27:27;12.40;99.90
19732;DHT22;10017;54.350;18.532;2023-03-20T11:30:01;12.50;99.90
19732;DHT22;10017;54.350;18.532;2023-03-20T11:32:38;12.40;99.90
19732;DHT22;10017;54.350;18.532;2023-03-20T11:38:14;12.30;99.90
19732;DHT22;10017;54.350;18.532;2023-03-20T11:40:47;12.30;99.90
19732;DHT22;10017;54.350;18.532;2023-03-20T11:43:26;12.40;99.90
19732;DHT22;10017;54.350;18.532;2023-03-20T11:45:59;12.50;99.90
19732;DHT22;10017;54.350;18.532;2023-03-20T11:48:39;12.50;99.90
19732;DHT22;10017;54.350;18.532;2023-03-20T11:51:15;12.60;99.90
19732;DHT22;10017;54.350;18.532;2023-03-20T11:56:28;12.60;99.90
19732;DHT22;10017;54.350;18.532;2023-03-20T12:01:47;12.20;99.90
19732;DHT22;10017;54.350;18.532;2023-03-20T12:04:36;11.90;99.90
19732;DHT22;10017;54.350;18.532;2023-03-20T12:07:16;11.80;99.90
19732;DHT22;10017;54.350;18.532;2023-03-20T12:20:37;11.60;99.90
19732;DHT22;10017;54.350;18.532;2023-03-20T12:25:46;11.70;99.90
19732;DHT22;10017;54.350;18.532;2023-03-20T12:31:03;11.70;99.90
19732;DHT22;10017;54.350;18.532;2023-03-20T12:36:11;11.70;99.90
19732;DHT22;10017;54.350;18.532;2023-03-20T12:38:43;11.80;99.90
19732;DHT22;10017;54.350;18.532;2023-03-20T12:49:06;12.10;99.90
19732;DHT22;10017;54.350;18.532;2023-03-20T12:54:59;12.40;99.90
19732;DHT22;10017;54.350;18.532;2023-03-20T12:57:36;12.50;99.90
19732;DHT22;10017;54.350;18.532;2023-03-20T13:03:17;12.50;99.90
19732;DHT22;10017;54.350;18.532;2023-03-20T13:13:56;12.10;99.90
19732;DHT22;10017;54.350;18.532;2023-03-20T13:16:34;12.20;99.90
19732;DHT22;10017;54.350;18.532;2023-03-20T13:27:15;11.20;99.90
19732;DHT22;10017;54.350;18.532;2023-03-20T13:30:06;10.80;99.90
19732;DHT22;10017;54.350;18.532;2023-03-20T13:37:56;9.70;99.90
19732;DHT22;10017;54.350;18.532;2023-03-20T13:40:33;9.60;99.90
19732;DHT22;10017;54.350;18.532;2023-03-20T13:46:14;9.20;99.90
19732;DHT22;10017;54.350;18.532;2023-03-20T13:48:47;9.20;99.90
19732;DHT22;10017;54.350;18.532;2023-03-20T13:59:19;9.20;99.90
19732;DHT22;10017;54.350;18.532;2023-03-20T14:05:00;9.20;99.90
19732;DHT22;10017;54.350;18.532;2023-03-20T14:07:37;9.20;99.90
19732;DHT22;10017;54.350;18.532;2023-03-20T14:12:54;9.10;99.90
19732;DHT22;10017;54.350;18.532;2023-03-20T14:15:27;9.00;99.90
19732;DHT22;10017;54.350;18.532;2023-03-20T14:18:05;8.90;99.90
19732;DHT22;10017;54.350;18.532;2023-03-20T14:20:38;8.80;99.90
19732;DHT22;10017;54.350;18.532;2023-03-20T14:23:16;8.80;99.90
19732;DHT22;10017;54.350;18.532;2023-03-20T14:25:49;8.80;99.90
19732;DHT22;10017;54.350;18.532;2023-03-20T14:28:27;8.80;99.90
19732;DHT22;10017;54.350;18.532;2023-03-20T14:31:19;8.70;99.90
19732;DHT22;10017;54.350;18.532;2023-03-20T14:36:43;8.60;99.90
19732;DHT22;10017;54.350;18.532;2023-03-20T14:39:24;8.60;99.90
19732;DHT22;10017;54.350;18.532;2023-03-20T14:57:50;8.70;99.90
19732;DHT22;10017;54.350;18.532;2023-03-20T15:00:28;8.80;99.90
19732;DHT22;10017;54.350;18.532;2023-03-20T15:03:05;8.90;99.90
19732;DHT22;10017;54.350;18.532;2023-03-20T15:05:40;9.00;99.90
19732;DHT22;10017;54.350;18.532;2023-03-20T15:08:21;9.10;99.90
19732;DHT22;10017;54.350;18.532;2023-03-20T15:10:57;9.20;99.90
19732;DHT22;10017;54.350;18.532;2023-03-20T15:13:29;9.20;99.90
19732;DHT22;10017;54.350;18.532;2023-03-20T15:18:49;9.10;99.90
19732;DHT22;10017;54.350;18.532;2023-03-20T15:21:37;9.00;99.90
19732;DHT22;10017;54.350;18.532;2023-03-20T15:24:21;9.00;99.90
19732;DHT22;10017;54.350;18.532;2023-03-20T15:26:59;9.00;99.90
19732;DHT22;10017;54.350;18.532;2023-03-20T15:29:31;9.00;99.90
19732;DHT22;10017;54.350;18.532;2023-03-20T15:32:04;9.00;99.90
19732;DHT22;10017;54.350;18.532;2023-03-20T15:34:45;9.00;99.90
19732;DHT22;10017;54.350;18.532;2023-03-20T15:37:21;8.90;99.90
19732;DHT22;10017;54.350;18.532;2023-03-20T15:39:54;8.90;99.90
19732;DHT22;10017;54.350;18.532;2023-03-20T15:42:31;8.80;99.90
19732;DHT22;10017;54.350;18.532;2023-03-20T15:45:12;8.90;99.90
19732;DHT22;10017;54.350;18.532;2023-03-20T15:47:47;8.80;99.90
19732;DHT22;10017;54.350;18.532;2023-03-20T15:50:22;8.80;99.90
19732;DHT22;10017;54.350;18.532;2023-03-20T15:52:55;8.70;99.90
19732;DHT22;10017;54.350;18.532;2023-03-20T15:55:27;8.70;99.90
19732;DHT22;10017;54.350;18.532;2023-03-20T15:58:00;8.70;99.90
19732;DHT22;10017;54.350;18.532;2023-03-20T16:00:33;8.70;99.90
19732;DHT22;10017;54.350;18.532;2023-03-20T16:03:09;8.70;99.90
19732;DHT22;10017;54.350;18.532;2023-03-20T16:05:43;8.70;99.90
19732;DHT22;10017;54.350;18.532;2023-03-20T16:08:23;8.70;99.90
19732;DHT22;10017;54.350;18.532;2023-03-20T16:10:56;8.70;99.90
19732;DHT22;10017;54.350;18.532;2023-03-20T16:13:35;8.70;99.90
19732;DHT22;10017;54.350;18.532;2023-03-20T16:16:10;8.70;99.90
19732;DHT22;10017;54.350;18.532;2023-03-20T16:18:44;8.70;99.90
19732;DHT22;10017;54.350;18.532;2023-03-20T16:21:21;8.50;99.90
19732;DHT22;10017;54.350;18.532;2023-03-20T16:23:56;8.50;99.90
19732;DHT22;10017;54.350;18.532;2023-03-20T16:26:28;8.40;99.90
19732;DHT22;10017;54.350;18.532;2023-03-20T16:29:00;8.30;99.90
19732;DHT22;10017;54.350;18.532;2023-03-20T16:31:35;8.20;99.90
19732;DHT22;10017;54.350;18.532;2023-03-20T16:34:16;8.10;99.90
19732;DHT22;10017;54.350;18.532;2023-03-20T16:36:56;8.10;99.90
19732;DHT22;10017;54.350;18.532;2023-03-20T16:39:29;8.10;99.90
19732;DHT22;10017;54.350;18.532;2023-03-20T16:44:39;8.00;99.90
19732;DHT22;10017;54.350;18.532;2023-03-20T16:47:20;8.00;99.90
19732;DHT22;10017;54.350;18.532;2023-03-20T16:52:37;8.00;99.90
19732;DHT22;10017;54.350;18.532;2023-03-20T16:55:23;8.00;99.90
19732;DHT22;10017;54.350;18.532;2023-03-20T16:58:01;8.00;99.90
19732;DHT22;10017;54.350;18.532;2023-03-20T17:00:50;8.00;99.90
19732;DHT22;10017;54.350;18.532;2023-03-20T17:03:27;8.00;99.90
19732;DHT22;10017;54.350;18.532;2023-03-20T17:06:03;8.00;99.90
19732;DHT22;10017;54.350;18.532;2023-03-20T17:08:39;8.00;99.90
19732;DHT22;10017;54.350;18.532;2023-03-20T17:11:12;8.00;99.90
19732;DHT22;10017;54.350;18.532;2023-03-20T17:13:45;7.90;99.90
19732;DHT22;10017;54.350;18.532;2023-03-20T17:16:17;7.90;99.90
19732;DHT22;10017;54.350;18.532;2023-03-20T17:19:06;7.90;99.90
19732;DHT22;10017;54.350;18.532;2023-03-20T17:21:41;7.90;99.90
19732;DHT22;10017;54.350;18.532;2023-03-20T17:24:16;7.90;99.90
19732;DHT22;10017;54.350;18.532;2023-03-20T17:26:51;7.90;99.90
19732;DHT22;10017;54.350;18.532;2023-03-20T17:29:23;7.90;99.90
19732;DHT22;10017;54.350;18.532;2023-03-20T17:31:58;7.90;99.90
19732;DHT22;10017;54.350;18.532;2023-03-20T17:34:30;7.80;99.90
19732;DHT22;10017;54.350;18.532;2023-03-20T17:37:04;7.80;99.90
19732;DHT22;10017;54.350;18.532;2023-03-20T17:39:37;7.80;99.90
19732;DHT22;10017;54.350;18.532;2023-03-20T17:42:18;7.80;99.90
19732;DHT22;10017;54.350;18.532;2023-03-20T17:44:51;7.80;99.90
19732;DHT22;10017;54.350;18.532;2023-03-20T17:47:24;7.70;99.90
19732;DHT22;10017;54.350;18.532;2023-03-20T17:49:56;7.70;99.90
19732;DHT22;10017;54.350;18.532;2023-03-20T17:52:28;7.70;99.90
19732;DHT22;10017;54.350;18.532;2023-03-20T17:55:00;7.70;99.90
19732;DHT22;10017;54.350;18.532;2023-03-20T17:57:33;7.60;99.90
19732;DHT22;10017;54.350;18.532;2023-03-20T18:00:11;7.60;99.90
19732;DHT22;10017;54.350;18.532;2023-03-20T18:02:43;7.60;99.90
19732;DHT22;10017;54.350;18.532;2023-03-20T18:05:17;7.60;99.90
19732;DHT22;10017;54.350;18.532;2023-03-20T18:07:49;7.50;99.90
19732;DHT22;10017;54.350;18.532;2023-03-20T18:10:24;7.50;99.90
19732;DHT22;10017;54.350;18.532;2023-03-20T18:12:56;7.50;99.90
19732;DHT22;10017;54.350;18.532;2023-03-20T18:15:29;7.50;99.90
19732;DHT22;10017;54.350;18.532;2023-03-20T18:18:01;7.40;99.90
19732;DHT22;10017;54.350;18.532;2023-03-20T18:20:33;7.40;99.90
19732;DHT22;10017;54.350;18.532;2023-03-20T18:23:06;7.40;99.90
19732;DHT22;10017;54.350;18.532;2023-03-20T18:25:40;7.40;99.90
19732;DHT22;10017;54.350;18.532;2023-03-20T18:28:16;7.40;99.90
19732;DHT22;10017;54.350;18.532;2023-03-20T18:30:55;7.40;99.90
19732;DHT22;10017;54.350;18.532;2023-03-20T18:33:26;7.40;99.90
19732;DHT22;10017;54.350;18.532;2023-03-20T18:36:01;7.40;99.90
19732;DHT22;10017;54.350;18.532;2023-03-20T18:38:33;7.30;99.90
19732;DHT22;10017;54.350;18.532;2023-03-20T18:41:05;7.30;99.90
19732;DHT22;10017;54.350;18.532;2023-03-20T18:43:37;7.30;99.90
19732;DHT22;10017;54.350;18.532;2023-03-20T18:46:13;7.30;99.90
19732;DHT22;10017;54.350;18.532;2023-03-20T18:48:46;7.20;99.90